sensor_id;sensor_type;location;lat;lon;timestamp;pressure;altitude;pressure_sealevel;temperature;humidity
56894;BME280;43392;50.078;13.704;2022-08-21T00:01:27;96993.34;;;16.79;87.82
56894;BME280;43392;50.078;13.704;2022-08-21T00:03:55;96993.69;;;16.78;87.62
56894;BME280;43392;50.078;13.704;2022-08-21T00:06:22;96993.69;;;16.78;88.30
56894;BME280;43392;50.078;13.704;2022-08-21T00:08:49;96996.38;;;16.78;88.06
56894;BME280;43392;50.078;13.704;2022-08-21T00:11:16;96995.25;;;16.79;88.30
56894;BME280;43392;50.078;13.704;2022-08-21T00:13:43;96988.25;;;16.78;88.02
56894;BME280;43392;50.078;13.704;2022-08-21T00:16:10;96992.56;;;16.79;88.26
56894;BME280;43392;50.078;13.704;2022-08-21T00:18:38;96987.94;;;16.79;88.72
56894;BME280;43392;50.078;13.704;2022-08-21T00:21:05;96996.53;;;16.81;88.43
56894;BME280;43392;50.078;13.704;2022-08-21T00:23:33;96977.59;;;16.81;88.94
56894;BME280;43392;50.078;13.704;2022-08-21T00:26:00;96973.78;;;16.82;88.78
56894;BME280;43392;50.078;13.704;2022-08-21T00:28:27;96984.28;;;16.84;89.00
56894;BME280;43392;50.078;13.704;2022-08-21T00:30:53;96979.66;;;16.84;88.93
56894;BME280;43392;50.078;13.704;2022-08-21T00:33:20;96977.75;;;16.85;88.76
56894;BME280;43392;50.078;13.704;2022-08-21T00:35:48;96974.25;;;16.84;89.03
56894;BME280;43392;50.078;13.704;2022-08-21T00:38:14;96978.56;;;16.85;89.34
56894;BME280;43392;50.078;13.704;2022-08-21T00:40:43;96987.50;;;16.86;89.09
56894;BME280;43392;50.078;13.704;2022-08-21T00:43:12;96975.06;;;16.85;89.18
56894;BME280;43392;50.078;13.704;2022-08-21T00:45:39;96984.00;;;16.85;89.18
56894;BME280;43392;50.078;13.704;2022-08-21T00:48:06;96980.81;;;16.83;88.77
56894;BME280;43392;50.078;13.704;2022-08-21T00:50:35;96980.28;;;16.81;89.14
56894;BME280;43392;50.078;13.704;2022-08-21T00:53:06;96977.28;;;16.83;89.03
56894;BME280;43392;50.078;13.704;2022-08-21T00:55:34;96983.00;;;16.81;88.83
56894;BME280;43392;50.078;13.704;2022-08-21T00:58:05;96978.22;;;16.78;88.71
56894;BME280;43392;50.078;13.704;2022-08-21T01:00:35;96977.72;;;16.76;88.67
56894;BME280;43392;50.078;13.704;2022-08-21T01:03:07;96977.25;;;16.74;88.68
56894;BME280;43392;50.078;13.704;2022-08-21T01:05:35;96975.66;;;16.73;88.61
56894;BME280;43392;50.078;13.704;2022-08-21T01:08:03;96982.19;;;16.72;88.79
56894;BME280;43392;50.078;13.704;2022-08-21T01:10:31;96975.47;;;16.70;89.35
56894;BME280;43392;50.078;13.704;2022-08-21T01:12:59;96978.50;;;16.68;89.11
56894;BME280;43392;50.078;13.704;2022-08-21T01:15:29;96973.91;;;16.69;89.46
56894;BME280;43392;50.078;13.704;2022-08-21T01:17:56;96972.28;;;16.68;89.21
56894;BME280;43392;50.078;13.704;2022-08-21T01:20:23;96978.50;;;16.68;89.27
56894;BME280;43392;50.078;13.704;2022-08-21T01:22:51;96967.69;;;16.68;89.49
56894;BME280;43392;50.078;13.704;2022-08-21T01:25:19;96970.69;;;16.67;89.31
56894;BME280;43392;50.078;13.704;2022-08-21T01:27:46;96972.63;;;16.66;89.48
56894;BME280;43392;50.078;13.704;2022-08-21T01:30:21;96977.22;;;16.66;89.63
56894;BME280;43392;50.078;13.704;2022-08-21T01:32:49;96972.09;;;16.64;89.60
56894;BME280;43392;50.078;13.704;2022-08-21T01:35:17;96971.00;;;16.65;89.39
56894;BME280;43392;50.078;13.704;2022-08-21T01:37:44;96976.44;;;16.65;89.77
56894;BME280;43392;50.078;13.704;2022-08-21T01:40:14;96972.09;;;16.64;90.10
56894;BME280;43392;50.078;13.704;2022-08-21T01:42:42;96970.53;;;16.63;89.94
56894;BME280;43392;50.078;13.704;2022-08-21T01:45:09;96970.53;;;16.63;89.71
56894;BME280;43392;50.078;13.704;2022-08-21T01:47:36;96965.13;;;16.63;89.99
56894;BME280;43392;50.078;13.704;2022-08-21T01:50:05;96963.22;;;16.64;90.58
56894;BME280;43392;50.078;13.704;2022-08-21T01:52:32;96956.38;;;16.66;90.55
56894;BME280;43392;50.078;13.704;2022-08-21T01:54:59;96946.03;;;16.68;90.55
56894;BME280;43392;50.078;13.704;2022-08-21T01:57:27;96951.91;;;16.70;90.90
56894;BME280;43392;50.078;13.704;2022-08-21T01:59:54;96956.22;;;16.71;90.49
56894;BME280;43392;50.078;13.704;2022-08-21T02:02:20;96957.81;;;16.72;90.21
56894;BME280;43392;50.078;13.704;2022-08-21T02:04:47;96951.13;;;16.70;90.20
56894;BME280;43392;50.078;13.704;2022-08-21T02:07:14;96950.63;;;16.68;90.48
56894;BME280;43392;50.078;13.704;2022-08-21T02:09:41;96945.22;;;16.68;90.49
56894;BME280;43392;50.078;13.704;2022-08-21T02:12:08;96947.13;;;16.67;90.64
56894;BME280;43392;50.078;13.704;2022-08-21T02:14:36;96946.31;;;16.67;90.71
56894;BME280;43392;50.078;13.704;2022-08-21T02:17:03;96948.25;;;16.66;90.41
56894;BME280;43392;50.078;13.704;2022-08-21T02:19:30;96947.44;;;16.66;91.06
56894;BME280;43392;50.078;13.704;2022-08-21T02:21:57;96945.03;;;16.64;90.74
56894;BME280;43392;50.078;13.704;2022-08-21T02:24:23;96942.31;;;16.64;91.07
56894;BME280;43392;50.078;13.704;2022-08-21T02:26:50;96947.75;;;16.64;90.94
56894;BME280;43392;50.078;13.704;2022-08-21T02:29:16;96948.88;;;16.63;90.62
56894;BME280;43392;50.078;13.704;2022-08-21T02:31:44;96948.88;;;16.63;91.23
56894;BME280;43392;50.078;13.704;2022-08-21T02:34:11;96944.25;;;16.64;90.91
56894;BME280;43392;50.078;13.704;2022-08-21T02:36:38;96942.66;;;16.63;91.15
56894;BME280;43392;50.078;13.704;2022-08-21T02:39:04;96939.94;;;16.63;91.24
56894;BME280;43392;50.078;13.704;2022-08-21T02:41:31;96942.66;;;16.63;90.88
56894;BME280;43392;50.078;13.704;2022-08-21T02:43:57;96936.44;;;16.62;91.40
56894;BME280;43392;50.078;13.704;2022-08-21T02:46:24;96939.16;;;16.62;91.50
56894;BME280;43392;50.078;13.704;2022-08-21T02:48:52;96938.03;;;16.63;91.24
56894;BME280;43392;50.078;13.704;2022-08-21T02:51:19;96935.34;;;16.63;91.65
56894;BME280;43392;50.078;13.704;2022-08-21T02:53:48;96939.63;;;16.64;91.85
56894;BME280;43392;50.078;13.704;2022-08-21T02:56:18;96933.44;;;16.64;91.61
56894;BME280;43392;50.078;13.704;2022-08-21T02:58:48;96937.25;;;16.63;91.40
56894;BME280;43392;50.078;13.704;2022-08-21T03:01:15;96942.19;;;16.61;91.43
56894;BME280;43392;50.078;13.704;2022-08-21T03:03:44;96943.75;;;16.62;91.72
56894;BME280;43392;50.078;13.704;2022-08-21T03:06:14;96936.44;;;16.62;91.54
56894;BME280;43392;50.078;13.704;2022-08-21T03:08:42;96933.25;;;16.60;91.76
56894;BME280;43392;50.078;13.704;2022-08-21T03:11:11;96940.28;;;16.61;91.86
56894;BME280;43392;50.078;13.704;2022-08-21T03:13:38;96937.56;;;16.61;91.40
56894;BME280;43392;50.078;13.704;2022-08-21T03:16:05;96940.28;;;16.61;91.09
56894;BME280;43392;50.078;13.704;2022-08-21T03:18:32;96941.38;;;16.60;91.34
56894;BME280;43392;50.078;13.704;2022-08-21T03:20:58;96937.84;;;16.59;91.92
56894;BME280;43392;50.078;13.704;2022-08-21T03:23:26;96932.44;;;16.59;91.73
56894;BME280;43392;50.078;13.704;2022-08-21T03:25:53;96937.84;;;16.59;91.54
56894;BME280;43392;50.078;13.704;2022-08-21T03:28:20;96939.78;;;16.59;91.94
56894;BME280;43392;50.078;13.704;2022-08-21T03:30:49;96933.25;;;16.60;92.36
56894;BME280;43392;50.078;13.704;2022-08-21T03:33:17;96936.75;;;16.61;92.05
56894;BME280;43392;50.078;13.704;2022-08-21T03:35:46;96936.75;;;16.61;92.12
56894;BME280;43392;50.078;13.704;2022-08-21T03:38:14;96938.03;;;16.63;92.08
56894;BME280;43392;50.078;13.704;2022-08-21T03:40:42;96941.03;;;16.62;92.40
56894;BME280;43392;50.078;13.704;2022-08-21T03:43:09;96943.47;;;16.63;92.10
56894;BME280;43392;50.078;13.704;2022-08-21T03:45:36;96938.03;;;16.63;92.05
56894;BME280;43392;50.078;13.704;2022-08-21T03:48:03;96947.25;;;16.62;92.23
56894;BME280;43392;50.078;13.704;2022-08-21T03:50:34;96939.94;;;16.63;92.65
56894;BME280;43392;50.078;13.704;2022-08-21T03:53:02;96948.06;;;16.63;92.77
56894;BME280;43392;50.078;13.704;2022-08-21T03:55:29;96949.97;;;16.62;91.93
56894;BME280;43392;50.078;13.704;2022-08-21T03:57:57;96955.22;;;16.58;91.88
56894;BME280;43392;50.078;13.704;2022-08-21T04:00:24;96955.53;;;16.57;92.02
56894;BME280;43392;50.078;13.704;2022-08-21T04:02:51;96962.06;;;16.56;92.02
56894;BME280;43392;50.078;13.704;2022-08-21T04:05:19;96955.84;;;16.55;92.42
56894;BME280;43392;50.078;13.704;2022-08-21T04:07:54;96957.75;;;16.55;92.24
56894;BME280;43392;50.078;13.704;2022-08-21T04:10:21;96953.16;;;16.55;92.24
56894;BME280;43392;50.078;13.704;2022-08-21T04:12:48;96953.47;;;16.54;92.07
56894;BME280;43392;50.078;13.704;2022-08-21T04:15:17;96959.66;;;16.54;92.12
56894;BME280;43392;50.078;13.704;2022-08-21T04:17:43;96961.06;;;16.52;92.40
56894;BME280;43392;50.078;13.704;2022-08-21T04:20:10;96970.00;;;16.52;92.30
56894;BME280;43392;50.078;13.704;2022-08-21T04:22:37;96965.41;;;16.53;92.47
56894;BME280;43392;50.078;13.704;2022-08-21T04:25:05;96977.84;;;16.54;92.27
56894;BME280;43392;50.078;13.704;2022-08-21T04:27:32;96977.03;;;16.53;92.94
56894;BME280;43392;50.078;13.704;2022-08-21T04:29:59;96976.22;;;16.53;92.28
56894;BME280;43392;50.078;13.704;2022-08-21T04:32:27;96989.44;;;16.54;92.55
56894;BME280;43392;50.078;13.704;2022-08-21T04:34:58;96987.53;;;16.55;92.52
56894;BME280;43392;50.078;13.704;2022-08-21T04:37:24;96989.16;;;16.56;92.63
56894;BME280;43392;50.078;13.704;2022-08-21T04:39:51;97002.69;;;16.56;92.45
56894;BME280;43392;50.078;13.704;2022-08-21T04:42:18;96998.06;;;16.56;92.31
56894;BME280;43392;50.078;13.704;2022-08-21T04:44:47;96991.38;;;16.54;92.62
56894;BME280;43392;50.078;13.704;2022-08-21T04:47:14;96997.56;;;16.54;92.69
56894;BME280;43392;50.078;13.704;2022-08-21T04:49:43;97002.69;;;16.56;92.71
56894;BME280;43392;50.078;13.704;2022-08-21T04:52:11;97011.59;;;16.56;92.57
56894;BME280;43392;50.078;13.704;2022-08-21T04:54:38;97004.25;;;16.57;92.93
56894;BME280;43392;50.078;13.704;2022-08-21T04:57:07;97002.06;;;16.59;92.97
56894;BME280;43392;50.078;13.704;2022-08-21T04:59:37;97005.25;;;16.61;92.96
56894;BME280;43392;50.078;13.704;2022-08-21T05:02:05;97014.94;;;16.62;92.96
56894;BME280;43392;50.078;13.704;2022-08-21T05:04:34;97010.66;;;16.61;92.91
56894;BME280;43392;50.078;13.704;2022-08-21T05:07:07;97020.50;;;16.57;92.57
56894;BME280;43392;50.078;13.704;2022-08-21T05:09:37;97018.13;;;16.55;92.72
56894;BME280;43392;50.078;13.704;2022-08-21T05:12:04;97009.38;;;16.58;93.36
56894;BME280;43392;50.078;13.704;2022-08-21T05:14:31;97017.97;;;16.61;92.93
56894;BME280;43392;50.078;13.704;2022-08-21T05:16:58;97018.78;;;16.61;93.09
56894;BME280;43392;50.078;13.704;2022-08-21T05:19:25;97017.66;;;16.62;92.86
56894;BME280;43392;50.078;13.704;2022-08-21T05:21:51;97019.28;;;16.63;92.80
56894;BME280;43392;50.078;13.704;2022-08-21T05:24:19;97024.69;;;16.63;92.68
56894;BME280;43392;50.078;13.704;2022-08-21T05:26:46;97028.50;;;16.62;92.45
56894;BME280;43392;50.078;13.704;2022-08-21T05:29:13;97019.28;;;16.63;92.61
56894;BME280;43392;50.078;13.704;2022-08-21T05:31:40;97024.69;;;16.63;92.66
56894;BME280;43392;50.078;13.704;2022-08-21T05:34:07;97028.19;;;16.64;92.71
56894;BME280;43392;50.078;13.704;2022-08-21T05:36:34;97026.25;;;16.64;92.92
56894;BME280;43392;50.078;13.704;2022-08-21T05:39:01;97026.78;;;16.66;92.79
56894;BME280;43392;50.078;13.704;2022-08-21T05:41:29;97024.53;;;16.68;92.60
56894;BME280;43392;50.078;13.704;2022-08-21T05:43:56;97018.00;;;16.69;92.83
56894;BME280;43392;50.078;13.704;2022-08-21T05:46:23;97018.50;;;16.71;92.91
56894;BME280;43392;50.078;13.704;2022-08-21T05:48:49;97022.00;;;16.72;92.46
56894;BME280;43392;50.078;13.704;2022-08-21T05:51:16;97017.38;;;16.72;92.66
56894;BME280;43392;50.078;13.704;2022-08-21T05:53:43;97023.13;;;16.71;92.35
56894;BME280;43392;50.078;13.704;2022-08-21T05:56:10;97022.00;;;16.72;92.62
56894;BME280;43392;50.078;13.704;2022-08-21T05:58:38;97022.00;;;16.72;92.86
56894;BME280;43392;50.078;13.704;2022-08-21T06:01:05;97027.13;;;16.73;93.18
56894;BME280;43392;50.078;13.704;2022-08-21T06:03:35;97017.88;;;16.74;92.90
56894;BME280;43392;50.078;13.704;2022-08-21T06:06:03;97019.94;;;16.77;92.79
56894;BME280;43392;50.078;13.704;2022-08-21T06:08:29;97025.56;;;16.81;92.77
56894;BME280;43392;50.078;13.704;2022-08-21T06:10:58;97024.63;;;16.85;92.96
56894;BME280;43392;50.078;13.704;2022-08-21T06:13:26;97021.25;;;16.88;92.92
56894;BME280;43392;50.078;13.704;2022-08-21T06:16:06;97022.53;;;16.91;92.73
56894;BME280;43392;50.078;13.704;2022-08-21T06:18:33;97017.63;;;16.93;92.60
56894;BME280;43392;50.078;13.704;2022-08-21T06:21:00;97013.97;;;16.97;92.21
56894;BME280;43392;50.078;13.704;2022-08-21T06:23:26;97026.88;;;17.00;92.11
56894;BME280;43392;50.078;13.704;2022-08-21T06:25:53;97021.97;;;17.02;92.12
56894;BME280;43392;50.078;13.704;2022-08-21T06:28:20;97023.25;;;17.05;92.29
56894;BME280;43392;50.078;13.704;2022-08-21T06:30:46;97026.09;;;17.08;91.62
56894;BME280;43392;50.078;13.704;2022-08-21T06:33:14;97022.28;;;17.09;91.40
56894;BME280;43392;50.078;13.704;2022-08-21T06:35:41;97030.72;;;17.08;90.90
56894;BME280;43392;50.078;13.704;2022-08-21T06:38:08;97028.50;;;17.10;91.00
56894;BME280;43392;50.078;13.704;2022-08-21T06:40:35;97030.91;;;17.11;90.79
56894;BME280;43392;50.078;13.704;2022-08-21T06:43:05;97036.78;;;17.13;90.84
56894;BME280;43392;50.078;13.704;2022-08-21T06:45:32;97031.84;;;17.15;90.96
56894;BME280;43392;50.078;13.704;2022-08-21T06:47:59;97037.47;;;17.19;90.33
56894;BME280;43392;50.078;13.704;2022-08-21T06:50:27;97037.13;;;17.20;90.48
56894;BME280;43392;50.078;13.704;2022-08-21T06:52:59;97029.97;;;17.24;90.33
56894;BME280;43392;50.078;13.704;2022-08-21T06:55:26;97033.66;;;17.29;90.31
56894;BME280;43392;50.078;13.704;2022-08-21T06:57:53;97028.72;;;17.31;90.09
56894;BME280;43392;50.078;13.704;2022-08-21T07:00:20;97027.59;;;17.32;90.26
56894;BME280;43392;50.078;13.704;2022-08-21T07:02:47;97022.34;;;17.35;89.93
56894;BME280;43392;50.078;13.704;2022-08-21T07:05:13;97038.28;;;17.37;89.77
56894;BME280;43392;50.078;13.704;2022-08-21T07:07:41;97030.63;;;17.39;89.79
56894;BME280;43392;50.078;13.704;2022-08-21T07:10:08;97029.50;;;17.40;89.76
56894;BME280;43392;50.078;13.704;2022-08-21T07:12:35;97033.50;;;17.42;89.70
56894;BME280;43392;50.078;13.704;2022-08-21T07:15:04;97021.56;;;17.43;89.85
56894;BME280;43392;50.078;13.704;2022-08-21T07:17:30;97027.78;;;17.44;89.55
56894;BME280;43392;50.078;13.704;2022-08-21T07:19:57;97030.78;;;17.42;89.02
56894;BME280;43392;50.078;13.704;2022-08-21T07:22:23;97030.78;;;17.42;88.98
56894;BME280;43392;50.078;13.704;2022-08-21T07:24:54;97031.59;;;17.43;88.99
56894;BME280;43392;50.078;13.704;2022-08-21T07:27:20;97026.97;;;17.43;89.48
56894;BME280;43392;50.078;13.704;2022-08-21T07:29:47;97026.34;;;17.46;89.38
56894;BME280;43392;50.078;13.704;2022-08-21T07:32:13;97021.41;;;17.48;89.08
56894;BME280;43392;50.078;13.704;2022-08-21T07:34:40;97027.31;;;17.50;89.48
56894;BME280;43392;50.078;13.704;2022-08-21T07:37:07;97028.28;;;17.54;89.49
56894;BME280;43392;50.078;13.704;2022-08-21T07:39:34;97025.28;;;17.56;89.00
56894;BME280;43392;50.078;13.704;2022-08-21T07:42:02;97034.50;;;17.55;88.55
56894;BME280;43392;50.078;13.704;2022-08-21T07:44:29;97028.75;;;17.56;88.42
56894;BME280;43392;50.078;13.704;2022-08-21T07:46:55;97037.88;;;17.60;88.73
56894;BME280;43392;50.078;13.704;2022-08-21T07:49:22;97033.41;;;17.64;88.71
56894;BME280;43392;50.078;13.704;2022-08-21T07:51:49;97027.34;;;17.67;88.45
56894;BME280;43392;50.078;13.704;2022-08-21T07:54:15;97029.56;;;17.74;88.84
56894;BME280;43392;50.078;13.704;2022-08-21T07:56:42;97032.13;;;17.79;88.58
56894;BME280;43392;50.078;13.704;2022-08-21T07:59:10;97035.78;;;17.83;87.80
56894;BME280;43392;50.078;13.704;2022-08-21T08:01:36;97032.59;;;17.81;87.22
56894;BME280;43392;50.078;13.704;2022-08-21T08:04:03;97035.00;;;17.82;87.55
56894;BME280;43392;50.078;13.704;2022-08-21T08:06:30;97032.44;;;17.86;87.40
56894;BME280;43392;50.078;13.704;2022-08-21T08:08:56;97036.91;;;17.90;87.31
56894;BME280;43392;50.078;13.704;2022-08-21T08:11:23;97038.66;;;17.95;87.46
56894;BME280;43392;50.078;13.704;2022-08-21T08:13:51;97039.63;;;17.99;87.25
56894;BME280;43392;50.078;13.704;2022-08-21T08:16:20;97043.28;;;18.03;86.95
56894;BME280;43392;50.078;13.704;2022-08-21T08:18:46;97039.94;;;18.06;86.60
56894;BME280;43392;50.078;13.704;2022-08-21T08:21:13;97038.97;;;18.11;86.81
56894;BME280;43392;50.078;13.704;2022-08-21T08:23:40;97057.00;;;18.15;86.64
56894;BME280;43392;50.078;13.704;2022-08-21T08:26:06;97053.66;;;18.18;86.32
56894;BME280;43392;50.078;13.704;2022-08-21T08:28:33;97041.19;;;18.17;86.02
56894;BME280;43392;50.078;13.704;2022-08-21T08:31:00;97046.31;;;18.19;86.20
56894;BME280;43392;50.078;13.704;2022-08-21T08:33:28;97051.41;;;18.20;85.93
56894;BME280;43392;50.078;13.704;2022-08-21T08:35:55;97050.94;;;18.18;86.00
56894;BME280;43392;50.078;13.704;2022-08-21T08:38:24;97044.38;;;18.19;85.62
56894;BME280;43392;50.078;13.704;2022-08-21T08:40:55;97049.03;;;18.19;85.61
56894;BME280;43392;50.078;13.704;2022-08-21T08:43:25;97041.34;;;18.21;85.50
56894;BME280;43392;50.078;13.704;2022-08-21T08:45:53;97040.50;;;18.37;85.08
56894;BME280;43392;50.078;13.704;2022-08-21T08:48:34;97041.31;;;18.46;84.23
56894;BME280;43392;50.078;13.704;2022-08-21T08:51:03;97045.13;;;18.54;83.78
56894;BME280;43392;50.078;13.704;2022-08-21T08:53:37;97046.22;;;18.62;83.19
56894;BME280;43392;50.078;13.704;2022-08-21T08:56:10;97054.50;;;18.74;82.57
56894;BME280;43392;50.078;13.704;2022-08-21T08:58:39;97052.34;;;18.88;82.34
56894;BME280;43392;50.078;13.704;2022-08-21T09:01:13;97046.22;;;18.99;81.81
56894;BME280;43392;50.078;13.704;2022-08-21T09:03:44;97041.06;;;19.06;81.47
56894;BME280;43392;50.078;13.704;2022-08-21T09:06:21;97044.88;;;19.14;80.55
56894;BME280;43392;50.078;13.704;2022-08-21T09:09:02;97048.56;;;19.18;79.71
56894;BME280;43392;50.078;13.704;2022-08-21T09:11:40;97047.22;;;19.24;79.86
56894;BME280;43392;50.078;13.704;2022-08-21T09:14:12;97056.00;;;19.30;79.06
56894;BME280;43392;50.078;13.704;2022-08-21T09:16:47;97039.81;;;19.33;78.63
56894;BME280;43392;50.078;13.704;2022-08-21T09:19:32;97038.88;;;19.38;78.38
56894;BME280;43392;50.078;13.704;2022-08-21T09:22:08;97037.06;;;19.42;78.40
56894;BME280;43392;50.078;13.704;2022-08-21T09:24:43;97036.25;;;19.50;78.57
56894;BME280;43392;50.078;13.704;2022-08-21T09:27:15;97036.69;;;19.52;76.86
56894;BME280;43392;50.078;13.704;2022-08-21T09:29:45;97032.03;;;19.52;77.17
56894;BME280;43392;50.078;13.704;2022-08-21T09:32:16;97030.38;;;19.60;77.47
56894;BME280;43392;50.078;13.704;2022-08-21T09:34:54;97024.75;;;19.65;76.98
56894;BME280;43392;50.078;13.704;2022-08-21T09:37:21;97024.88;;;19.68;76.88
56894;BME280;43392;50.078;13.704;2022-08-21T09:39:48;97025.81;;;19.72;76.78
56894;BME280;43392;50.078;13.704;2022-08-21T09:42:22;97032.97;;;19.77;76.65
56894;BME280;43392;50.078;13.704;2022-08-21T09:45:00;97032.06;;;19.73;75.60
56894;BME280;43392;50.078;13.704;2022-08-21T09:47:30;97025.59;;;19.77;75.93
56894;BME280;43392;50.078;13.704;2022-08-21T09:50:07;97027.47;;;19.85;75.68
56894;BME280;43392;50.078;13.704;2022-08-21T09:52:42;97027.94;;;19.88;74.56
56894;BME280;43392;50.078;13.704;2022-08-21T09:55:16;97019.09;;;19.91;74.34
56894;BME280;43392;50.078;13.704;2022-08-21T09:57:59;97014.38;;;20.00;74.96
56894;BME280;43392;50.078;13.704;2022-08-21T10:00:30;97020.06;;;20.07;74.93
56894;BME280;43392;50.078;13.704;2022-08-21T10:03:09;97018.75;;;20.13;74.62
56894;BME280;43392;50.078;13.704;2022-08-21T10:05:38;97014.22;;;20.17;74.37
56894;BME280;43392;50.078;13.704;2022-08-21T10:08:04;97009.22;;;20.19;73.98
56894;BME280;43392;50.078;13.704;2022-08-21T10:10:36;97012.13;;;20.22;73.90
56894;BME280;43392;50.078;13.704;2022-08-21T10:13:08;97005.31;;;20.28;73.94
56894;BME280;43392;50.078;13.704;2022-08-21T10:15:46;97015.53;;;20.31;72.54
56894;BME280;43392;50.078;13.704;2022-08-21T10:18:20;97007.16;;;20.36;73.26
56894;BME280;43392;50.078;13.704;2022-08-21T10:20:54;97007.47;;;20.35;72.31
56894;BME280;43392;50.078;13.704;2022-08-21T10:23:36;97004.09;;;20.38;71.93
56894;BME280;43392;50.078;13.704;2022-08-21T10:26:10;97003.41;;;20.41;72.58
56894;BME280;43392;50.078;13.704;2022-08-21T10:28:49;97002.75;;;20.44;72.30
56894;BME280;43392;50.078;13.704;2022-08-21T10:31:28;97004.69;;;20.43;72.10
56894;BME280;43392;50.078;13.704;2022-08-21T10:34:07;97002.06;;;20.47;71.83
56894;BME280;43392;50.078;13.704;2022-08-21T10:36:44;97008.53;;;20.55;71.75
56894;BME280;43392;50.078;13.704;2022-08-21T10:39:18;97005.59;;;20.60;71.41
56894;BME280;43392;50.078;13.704;2022-08-21T10:42:08;97005.38;;;20.65;71.07
56894;BME280;43392;50.078;13.704;2022-08-21T10:44:46;97002.31;;;20.66;70.52
56894;BME280;43392;50.078;13.704;2022-08-21T10:47:18;97001.53;;;20.66;70.74
56894;BME280;43392;50.078;13.704;2022-08-21T10:49:55;96999.47;;;20.63;70.51
56894;BME280;43392;50.078;13.704;2022-08-21T10:52:39;97008.47;;;20.63;71.18
56894;BME280;43392;50.078;13.704;2022-08-21T10:55:14;97003.25;;;20.70;70.94
56894;BME280;43392;50.078;13.704;2022-08-21T10:57:46;96995.53;;;20.72;69.38
56894;BME280;43392;50.078;13.704;2022-08-21T11:00:16;96994.16;;;20.78;69.47
56894;BME280;43392;50.078;13.704;2022-08-21T11:02:49;96992.34;;;20.82;69.28
56894;BME280;43392;50.078;13.704;2022-08-21T11:05:21;97000.97;;;20.84;69.38
56894;BME280;43392;50.078;13.704;2022-08-21T11:07:55;96997.59;;;20.87;68.62
56894;BME280;43392;50.078;13.704;2022-08-21T11:10:25;96993.81;;;20.92;68.67
56894;BME280;43392;50.078;13.704;2022-08-21T11:12:56;96995.53;;;20.96;68.76
56894;BME280;43392;50.078;13.704;2022-08-21T11:15:36;96979.75;;;21.02;68.14
56894;BME280;43392;50.078;13.704;2022-08-21T11:18:15;96983.72;;;21.04;67.26
56894;BME280;43392;50.078;13.704;2022-08-21T11:20:50;96990.91;;;21.09;68.00
56894;BME280;43392;50.078;13.704;2022-08-21T11:23:23;96992.16;;;21.11;66.75
56894;BME280;43392;50.078;13.704;2022-08-21T11:25:55;96991.56;;;21.06;67.34
56894;BME280;43392;50.078;13.704;2022-08-21T11:28:26;96987.72;;;21.07;67.41
56894;BME280;43392;50.078;13.704;2022-08-21T11:31:03;96982.81;;;21.12;67.59
56894;BME280;43392;50.078;13.704;2022-08-21T11:33:46;96977.72;;;21.11;67.18
56894;BME280;43392;50.078;13.704;2022-08-21T11:36:21;96977.38;;;21.12;67.65
56894;BME280;43392;50.078;13.704;2022-08-21T11:38:57;96976.25;;;21.13;67.64
56894;BME280;43392;50.078;13.704;2022-08-21T11:41:31;96980.44;;;21.11;66.24
56894;BME280;43392;50.078;13.704;2022-08-21T11:44:08;96973.97;;;21.15;66.05
56894;BME280;43392;50.078;13.704;2022-08-21T11:46:43;96971.69;;;21.17;66.28
56894;BME280;43392;50.078;13.704;2022-08-21T11:49:27;96970.78;;;21.13;65.23
56894;BME280;43392;50.078;13.704;2022-08-21T11:52:06;96971.22;;;21.15;66.10
56894;BME280;43392;50.078;13.704;2022-08-21T11:54:40;96974.63;;;21.12;66.68
56894;BME280;43392;50.078;13.704;2022-08-21T11:57:19;96970.34;;;21.11;66.96
56894;BME280;43392;50.078;13.704;2022-08-21T11:59:52;96969.97;;;21.13;66.85
56894;BME280;43392;50.078;13.704;2022-08-21T12:02:24;96976.56;;;21.24;66.52
56894;BME280;43392;50.078;13.704;2022-08-21T12:04:56;96982.94;;;21.28;66.63
56894;BME280;43392;50.078;13.704;2022-08-21T12:07:32;96977.13;;;21.30;66.18
56894;BME280;43392;50.078;13.704;2022-08-21T12:10:03;96981.22;;;21.24;66.47
56894;BME280;43392;50.078;13.704;2022-08-21T12:12:32;96981.00;;;21.17;66.51
56894;BME280;43392;50.078;13.704;2022-08-21T12:15:15;96976.69;;;21.15;66.63
56894;BME280;43392;50.078;13.704;2022-08-21T12:17:53;96980.06;;;21.25;66.67
56894;BME280;43392;50.078;13.704;2022-08-21T12:20:36;96984.75;;;21.24;66.60
56894;BME280;43392;50.078;13.704;2022-08-21T12:23:13;96978.72;;;21.19;67.06
56894;BME280;43392;50.078;13.704;2022-08-21T12:25:44;96970.78;;;21.13;66.61
56894;BME280;43392;50.078;13.704;2022-08-21T12:28:14;96984.50;;;21.17;65.60
56894;BME280;43392;50.078;13.704;2022-08-21T12:30:44;96980.53;;;21.27;65.09
56894;BME280;43392;50.078;13.704;2022-08-21T12:33:23;96975.53;;;21.29;64.79
56894;BME280;43392;50.078;13.704;2022-08-21T12:35:52;96972.81;;;21.29;63.75
56894;BME280;43392;50.078;13.704;2022-08-21T12:38:22;96967.34;;;21.29;63.37
56894;BME280;43392;50.078;13.704;2022-08-21T12:40:52;96967.81;;;21.31;63.91
56894;BME280;43392;50.078;13.704;2022-08-21T12:43:21;96964.41;;;21.34;64.42
56894;BME280;43392;50.078;13.704;2022-08-21T12:45:50;96971.53;;;21.38;64.18
56894;BME280;43392;50.078;13.704;2022-08-21T12:48:21;96960.50;;;21.35;64.17
56894;BME280;43392;50.078;13.704;2022-08-21T12:50:51;96953.25;;;21.39;63.43
56894;BME280;43392;50.078;13.704;2022-08-21T12:53:27;96956.88;;;21.43;62.57
56894;BME280;43392;50.078;13.704;2022-08-21T12:55:57;96940.59;;;21.46;62.75
56894;BME280;43392;50.078;13.704;2022-08-21T12:58:27;96954.94;;;21.43;62.31
56894;BME280;43392;50.078;13.704;2022-08-21T13:00:57;96954.59;;;21.45;62.25
56894;BME280;43392;50.078;13.704;2022-08-21T13:03:26;96943.66;;;21.45;62.01